sensor_id;sensor_type;location;lat;lon;timestamp;pressure;altitude;pressure_sealevel;temperature;humidity
61757;BME280;57225;61.460;24.060;2023-05-09T00:02:32;101268.28;;;4.24;68.71
61757;BME280;57225;61.460;24.060;2023-05-09T00:05:18;101264.09;;;4.18;68.87
61757;BME280;57225;61.460;24.060;2023-05-09T00:08:03;101254.56;;;4.07;68.85
61757;BME280;57225;61.460;24.060;2023-05-09T00:10:48;101263.66;;;4.08;69.52
61757;BME280;57225;61.460;24.060;2023-05-09T00:13:32;101265.63;;;4.07;69.69
61757;BME280;57225;61.460;24.060;2023-05-09T00:16:17;101252.94;;;4.06;69.83
61757;BME280;57225;61.460;24.060;2023-05-09T00:19:03;101257.66;;;4.05;69.82
61757;BME280;57225;61.460;24.060;2023-05-09T00:21:48;101251.84;;;3.98;69.93
61757;BME280;57225;61.460;24.060;2023-05-09T00:24:33;101261.31;;;3.89;69.72
61757;BME280;57225;61.460;24.060;2023-05-09T00:27:18;101217.59;;;3.61;70.26
61757;BME280;57225;61.460;24.060;2023-05-09T00:30:06;101266.88;;;3.72;70.82
61757;BME280;57225;61.460;24.060;2023-05-09T00:32:50;101253.63;;;3.56;71.09
61757;BME280;57225;61.460;24.060;2023-05-09T00:35:35;101261.88;;;3.56;71.17
61757;BME280;57225;61.460;24.060;2023-05-09T00:38:23;101264.16;;;3.54;71.29
61757;BME280;57225;61.460;24.060;2023-05-09T00:41:08;101271.97;;;3.52;72.03
61757;BME280;57225;61.460;24.060;2023-05-09T00:43:52;101267.09;;;3.49;71.37
61757;BME280;57225;61.460;24.060;2023-05-09T00:46:37;101244.75;;;3.34;71.64
61757;BME280;57225;61.460;24.060;2023-05-09T00:49:23;101265.81;;;3.47;71.90
61757;BME280;57225;61.460;24.060;2023-05-09T00:52:07;101269.53;;;3.42;71.34
61757;BME280;57225;61.460;24.060;2023-05-09T00:54:53;101257.06;;;3.36;71.86
61757;BME280;57225;61.460;24.060;2023-05-09T00:57:38;101262.44;;;3.33;71.89
61757;BME280;57225;61.460;24.060;2023-05-09T01:00:24;101237.31;;;3.17;71.60
61757;BME280;57225;61.460;24.060;2023-05-09T01:03:09;101233.44;;;3.18;71.73
61757;BME280;57225;61.460;24.060;2023-05-09T01:09:26;101260.00;;;3.14;71.69
61757;BME280;57225;61.460;24.060;2023-05-09T01:12:19;101257.25;;;3.14;72.10
61757;BME280;57225;61.460;24.060;2023-05-09T01:15:17;101248.00;;;3.10;72.63
61757;BME280;57225;61.460;24.060;2023-05-09T01:18:20;101248.19;;;3.05;71.92
61757;BME280;57225;61.460;24.060;2023-05-09T01:21:22;101226.00;;;2.93;71.81
61757;BME280;57225;61.460;24.060;2023-05-09T01:24:33;101223.56;;;2.91;71.70
61757;BME280;57225;61.460;24.060;2023-05-09T01:27:39;101209.81;;;2.82;72.26
61757;BME280;57225;61.460;24.060;2023-05-09T01:30:28;101221.16;;;2.90;72.04
61757;BME280;57225;61.460;24.060;2023-05-09T01:33:18;101217.56;;;2.80;71.64
61757;BME280;57225;61.460;24.060;2023-05-09T01:36:04;101232.63;;;2.92;71.69
61757;BME280;57225;61.460;24.060;2023-05-09T01:38:51;101228.91;;;2.88;71.47
61757;BME280;57225;61.460;24.060;2023-05-09T01:41:36;101223.25;;;2.84;70.91
61757;BME280;57225;61.460;24.060;2023-05-09T01:44:22;101202.84;;;2.68;71.39
61757;BME280;57225;61.460;24.060;2023-05-09T01:47:08;101221.31;;;2.76;71.83
61757;BME280;57225;61.460;24.060;2023-05-09T01:49:54;101203.81;;;2.63;72.90
61757;BME280;57225;61.460;24.060;2023-05-09T01:52:40;101214.03;;;2.71;72.88
61757;BME280;57225;61.460;24.060;2023-05-09T01:55:29;101214.66;;;2.68;73.48
61757;BME280;57225;61.460;24.060;2023-05-09T01:58:15;101201.41;;;2.70;72.60
61757;BME280;57225;61.460;24.060;2023-05-09T02:01:02;101189.56;;;2.61;71.46
61757;BME280;57225;61.460;24.060;2023-05-09T02:03:49;101186.66;;;2.66;70.97
61757;BME280;57225;61.460;24.060;2023-05-09T02:06:35;101204.78;;;2.76;70.46
61757;BME280;57225;61.460;24.060;2023-05-09T02:09:20;101201.53;;;2.74;71.62
61757;BME280;57225;61.460;24.060;2023-05-09T02:12:06;101195.06;;;2.78;71.25
61757;BME280;57225;61.460;24.060;2023-05-09T02:14:50;101181.00;;;2.71;70.92
61757;BME280;57225;61.460;24.060;2023-05-09T02:17:35;101193.44;;;2.86;70.40
61757;BME280;57225;61.460;24.060;2023-05-09T02:20:20;101166.44;;;2.71;69.88
61757;BME280;57225;61.460;24.060;2023-05-09T02:23:05;101187.13;;;2.86;69.57
61757;BME280;57225;61.460;24.060;2023-05-09T02:26:04;101190.69;;;2.95;69.54
61757;BME280;57225;61.460;24.060;2023-05-09T02:28:50;101193.44;;;3.03;68.90
61757;BME280;57225;61.460;24.060;2023-05-09T02:31:35;101193.91;;;3.14;68.25
61757;BME280;57225;61.460;24.060;2023-05-09T02:34:20;101186.41;;;3.23;66.94
61757;BME280;57225;61.460;24.060;2023-05-09T02:37:05;101185.91;;;3.30;66.91
61757;BME280;57225;61.460;24.060;2023-05-09T02:39:50;101166.31;;;3.22;66.47
61757;BME280;57225;61.460;24.060;2023-05-09T02:42:35;101187.03;;;3.37;66.54
61757;BME280;57225;61.460;24.060;2023-05-09T02:45:19;101185.09;;;3.46;65.53
61757;BME280;57225;61.460;24.060;2023-05-09T02:48:04;101178.91;;;3.49;65.27
61757;BME280;57225;61.460;24.060;2023-05-09T02:50:49;101186.94;;;3.72;65.01
61757;BME280;57225;61.460;24.060;2023-05-09T02:53:33;101178.97;;;3.79;64.03
61757;BME280;57225;61.460;24.060;2023-05-09T02:56:18;101167.53;;;3.89;63.46
61757;BME280;57225;61.460;24.060;2023-05-09T02:59:02;101172.22;;;3.97;62.54
61757;BME280;57225;61.460;24.060;2023-05-09T03:01:47;101156.72;;;3.84;62.72
61757;BME280;57225;61.460;24.060;2023-05-09T03:04:32;101175.09;;;4.00;63.01
61757;BME280;57225;61.460;24.060;2023-05-09T03:07:16;101173.16;;;4.01;61.83
61757;BME280;57225;61.460;24.060;2023-05-09T03:10:01;101181.50;;;4.13;62.06
61757;BME280;57225;61.460;24.060;2023-05-09T03:12:45;101172.22;;;4.18;62.02
61757;BME280;57225;61.460;24.060;2023-05-09T03:15:30;101166.59;;;4.14;61.04
61757;BME280;57225;61.460;24.060;2023-05-09T03:18:15;101162.97;;;4.22;60.91
61757;BME280;57225;61.460;24.060;2023-05-09T03:20:59;101168.78;;;4.29;60.71
61757;BME280;57225;61.460;24.060;2023-05-09T03:23:43;101158.66;;;4.33;59.84
61757;BME280;57225;61.460;24.060;2023-05-09T03:26:28;101175.41;;;4.49;59.91
61757;BME280;57225;61.460;24.060;2023-05-09T03:29:12;101175.16;;;4.63;58.96
61757;BME280;57225;61.460;24.060;2023-05-09T03:31:57;101147.75;;;4.58;58.98
61757;BME280;57225;61.460;24.060;2023-05-09T03:34:42;101173.88;;;4.81;57.11
61757;BME280;57225;61.460;24.060;2023-05-09T03:37:27;101155.00;;;4.83;56.76
61757;BME280;57225;61.460;24.060;2023-05-09T03:40:11;101166.84;;;5.04;56.01
61757;BME280;57225;61.460;24.060;2023-05-09T03:42:55;101164.31;;;4.99;56.22
61757;BME280;57225;61.460;24.060;2023-05-09T03:45:40;101164.88;;;5.05;56.41
61757;BME280;57225;61.460;24.060;2023-05-09T03:48:24;101160.88;;;5.14;56.28
61757;BME280;57225;61.460;24.060;2023-05-09T03:51:09;101160.88;;;5.14;56.42
61757;BME280;57225;61.460;24.060;2023-05-09T03:53:53;101146.72;;;5.16;56.36
61757;BME280;57225;61.460;24.060;2023-05-09T03:56:38;101120.31;;;5.06;55.79
61757;BME280;57225;61.460;24.060;2023-05-09T03:59:23;101157.03;;;5.40;55.31
61757;BME280;57225;61.460;24.060;2023-05-09T04:02:07;101158.00;;;5.68;54.35
61757;BME280;57225;61.460;24.060;2023-05-09T04:04:52;101159.47;;;5.65;53.95
61757;BME280;57225;61.460;24.060;2023-05-09T04:07:37;101159.38;;;5.74;53.83
61757;BME280;57225;61.460;24.060;2023-05-09T04:10:21;101161.34;;;5.74;54.32
61757;BME280;57225;61.460;24.060;2023-05-09T04:13:06;101150.63;;;5.84;54.91
61757;BME280;57225;61.460;24.060;2023-05-09T04:15:51;101130.09;;;5.85;53.90
61757;BME280;57225;61.460;24.060;2023-05-09T04:18:35;101144.44;;;5.99;53.10
61757;BME280;57225;61.460;24.060;2023-05-09T04:21:23;101150.84;;;6.16;53.65
61757;BME280;57225;61.460;24.060;2023-05-09T04:24:07;101144.38;;;6.24;52.29
61757;BME280;57225;61.460;24.060;2023-05-09T04:26:51;101147.69;;;6.41;52.29
61757;BME280;57225;61.460;24.060;2023-05-09T04:29:36;101130.88;;;6.34;50.99
61757;BME280;57225;61.460;24.060;2023-05-09T04:32:21;101136.25;;;6.55;51.92
61757;BME280;57225;61.460;24.060;2023-05-09T04:35:06;101143.78;;;6.70;51.10
61757;BME280;57225;61.460;24.060;2023-05-09T04:37:51;101129.34;;;6.77;51.56
61757;BME280;57225;61.460;24.060;2023-05-09T04:40:35;101142.94;;;7.10;50.37
61757;BME280;57225;61.460;24.060;2023-05-09T04:43:20;101137.59;;;7.48;50.38
61757;BME280;57225;61.460;24.060;2023-05-09T04:46:05;101120.53;;;8.13;47.38
61757;BME280;57225;61.460;24.060;2023-05-09T04:48:52;101143.31;;;10.05;43.62
61757;BME280;57225;61.460;24.060;2023-05-09T04:51:36;101119.69;;;11.12;40.09
61757;BME280;57225;61.460;24.060;2023-05-09T04:54:21;101141.16;;;11.89;39.21
61757;BME280;57225;61.460;24.060;2023-05-09T04:57:05;101125.69;;;12.02;37.89
61757;BME280;57225;61.460;24.060;2023-05-09T04:59:49;101105.84;;;12.18;37.53
61757;BME280;57225;61.460;24.060;2023-05-09T05:02:34;101135.41;;;13.05;37.06
61757;BME280;57225;61.460;24.060;2023-05-09T05:05:18;101141.88;;;13.16;35.67
61757;BME280;57225;61.460;24.060;2023-05-09T05:08:02;101136.72;;;13.40;36.20
61757;BME280;57225;61.460;24.060;2023-05-09T05:10:47;101132.72;;;13.37;35.29
61757;BME280;57225;61.460;24.060;2023-05-09T05:13:32;101138.88;;;12.74;36.53
61757;BME280;57225;61.460;24.060;2023-05-09T05:16:17;101136.56;;;12.97;36.44
61757;BME280;57225;61.460;24.060;2023-05-09T05:19:01;101121.66;;;12.65;36.74
61757;BME280;57225;61.460;24.060;2023-05-09T05:21:46;101135.63;;;12.61;37.12
61757;BME280;57225;61.460;24.060;2023-05-09T05:24:31;101128.16;;;12.14;36.70
61757;BME280;57225;61.460;24.060;2023-05-09T05:27:17;101123.78;;;12.17;37.95
61757;BME280;57225;61.460;24.060;2023-05-09T05:30:02;101136.19;;;11.68;37.76
61757;BME280;57225;61.460;24.060;2023-05-09T05:32:47;101131.56;;;11.46;38.51
61757;BME280;57225;61.460;24.060;2023-05-09T05:35:31;101131.03;;;11.33;39.02
61757;BME280;57225;61.460;24.060;2023-05-09T05:38:16;101120.16;;;11.21;39.29
61757;BME280;57225;61.460;24.060;2023-05-09T05:41:00;101120.84;;;11.11;39.52
61757;BME280;57225;61.460;24.060;2023-05-09T05:43:44;101104.47;;;10.72;39.60
61757;BME280;57225;61.460;24.060;2023-05-09T05:46:30;101115.13;;;10.97;40.34
61757;BME280;57225;61.460;24.060;2023-05-09T05:49:14;101110.97;;;11.17;40.05
61757;BME280;57225;61.460;24.060;2023-05-09T05:51:59;101087.78;;;11.13;39.11
61757;BME280;57225;61.460;24.060;2023-05-09T05:54:43;101101.47;;;11.25;40.26
61757;BME280;57225;61.460;24.060;2023-05-09T05:57:28;101100.84;;;11.42;40.15
61757;BME280;57225;61.460;24.060;2023-05-09T06:00:13;101111.28;;;11.49;40.05
61757;BME280;57225;61.460;24.060;2023-05-09T06:02:57;101101.72;;;11.50;38.94
61757;BME280;57225;61.460;24.060;2023-05-09T06:05:42;101091.69;;;11.45;39.32
61757;BME280;57225;61.460;24.060;2023-05-09T06:08:27;101095.47;;;11.23;40.27
61757;BME280;57225;61.460;24.060;2023-05-09T06:11:12;101094.38;;;11.31;40.36
61757;BME280;57225;61.460;24.060;2023-05-09T06:13:56;101101.22;;;11.41;40.21
61757;BME280;57225;61.460;24.060;2023-05-09T06:16:43;101097.31;;;11.49;40.66
61757;BME280;57225;61.460;24.060;2023-05-09T06:19:27;101083.78;;;11.54;40.69
61757;BME280;57225;61.460;24.060;2023-05-09T06:22:12;101099.16;;;11.75;40.21
61757;BME280;57225;61.460;24.060;2023-05-09T06:24:56;101098.41;;;11.85;39.33
61757;BME280;57225;61.460;24.060;2023-05-09T06:27:41;101087.84;;;12.12;39.27
61757;BME280;57225;61.460;24.060;2023-05-09T06:30:27;101066.78;;;12.35;39.53
61757;BME280;57225;61.460;24.060;2023-05-09T06:33:12;101078.84;;;12.50;38.27
61757;BME280;57225;61.460;24.060;2023-05-09T06:35:58;101096.50;;;12.68;38.77
61757;BME280;57225;61.460;24.060;2023-05-09T06:38:42;101084.47;;;12.61;38.73
61757;BME280;57225;61.460;24.060;2023-05-09T06:41:27;101072.50;;;12.60;39.00
61757;BME280;57225;61.460;24.060;2023-05-09T06:44:12;101076.56;;;12.77;38.48
61757;BME280;57225;61.460;24.060;2023-05-09T06:46:56;101083.78;;;12.85;38.34
61757;BME280;57225;61.460;24.060;2023-05-09T06:49:41;101077.41;;;12.92;38.19
61757;BME280;57225;61.460;24.060;2023-05-09T06:52:27;101055.91;;;13.13;37.40
61757;BME280;57225;61.460;24.060;2023-05-09T06:55:13;101064.28;;;13.13;37.76
61757;BME280;57225;61.460;24.060;2023-05-09T06:57:58;101048.69;;;13.16;38.20
61757;BME280;57225;61.460;24.060;2023-05-09T07:00:43;101065.91;;;13.60;37.38
61757;BME280;57225;61.460;24.060;2023-05-09T07:03:27;101067.91;;;13.67;37.54
61757;BME280;57225;61.460;24.060;2023-05-09T07:06:12;101051.88;;;13.96;37.28
61757;BME280;57225;61.460;24.060;2023-05-09T07:08:57;101040.66;;;13.85;37.32
61757;BME280;57225;61.460;24.060;2023-05-09T07:11:41;101071.00;;;14.33;37.32
61757;BME280;57225;61.460;24.060;2023-05-09T07:14:26;101063.75;;;14.53;35.42
61757;BME280;57225;61.460;24.060;2023-05-09T07:17:11;101066.91;;;14.62;36.57
61757;BME280;57225;61.460;24.060;2023-05-09T07:19:56;101063.25;;;14.72;36.25
61757;BME280;57225;61.460;24.060;2023-05-09T07:22:40;101064.00;;;14.83;35.00
61757;BME280;57225;61.460;24.060;2023-05-09T07:25:25;101064.72;;;14.95;34.36
61757;BME280;57225;61.460;24.060;2023-05-09T07:28:10;101053.69;;;15.25;36.21
61757;BME280;57225;61.460;24.060;2023-05-09T07:30:56;101059.16;;;15.46;36.41
61757;BME280;57225;61.460;24.060;2023-05-09T07:33:40;101060.25;;;15.63;35.50
61757;BME280;57225;61.460;24.060;2023-05-09T07:36:25;101053.06;;;15.58;35.47
61757;BME280;57225;61.460;24.060;2023-05-09T07:39:09;101055.16;;;15.47;34.70
61757;BME280;57225;61.460;24.060;2023-05-09T07:41:54;101050.19;;;15.65;35.24
61757;BME280;57225;61.460;24.060;2023-05-09T07:44:38;101052.16;;;15.72;34.58
61757;BME280;57225;61.460;24.060;2023-05-09T07:47:22;101038.25;;;15.95;34.83
61757;BME280;57225;61.460;24.060;2023-05-09T07:50:08;101036.03;;;15.76;34.94
61757;BME280;57225;61.460;24.060;2023-05-09T07:52:52;101036.84;;;16.14;35.04
61757;BME280;57225;61.460;24.060;2023-05-09T07:55:38;101028.94;;;16.02;33.19
61757;BME280;57225;61.460;24.060;2023-05-09T07:58:23;101021.44;;;16.26;35.02
61757;BME280;57225;61.460;24.060;2023-05-09T08:01:07;101024.31;;;16.56;35.25
61757;BME280;57225;61.460;24.060;2023-05-09T08:03:54;101024.56;;;16.35;34.04
61757;BME280;57225;61.460;24.060;2023-05-09T08:06:39;101012.84;;;16.40;34.15
61757;BME280;57225;61.460;24.060;2023-05-09T08:09:23;101017.81;;;16.63;34.10
61757;BME280;57225;61.460;24.060;2023-05-09T08:12:09;101014.84;;;16.39;33.83
61757;BME280;57225;61.460;24.060;2023-05-09T08:14:54;101015.69;;;16.36;34.55
61757;BME280;57225;61.460;24.060;2023-05-09T08:17:38;101013.72;;;16.33;34.74
61757;BME280;57225;61.460;24.060;2023-05-09T08:20:23;101005.25;;;16.37;34.36
61757;BME280;57225;61.460;24.060;2023-05-09T08:23:38;101008.88;;;16.68;34.17
61757;BME280;57225;61.460;24.060;2023-05-09T08:26:23;100994.13;;;16.87;34.78
61757;BME280;57225;61.460;24.060;2023-05-09T08:29:09;101007.22;;;17.24;33.93
61757;BME280;57225;61.460;24.060;2023-05-09T08:31:53;101004.84;;;17.46;34.73
61757;BME280;57225;61.460;24.060;2023-05-09T08:34:38;101005.41;;;17.37;33.70
61757;BME280;57225;61.460;24.060;2023-05-09T08:37:23;100993.84;;;16.78;33.99
61757;BME280;57225;61.460;24.060;2023-05-09T08:40:07;101012.34;;;17.06;33.58
61757;BME280;57225;61.460;24.060;2023-05-09T08:42:53;100995.16;;;17.23;34.01
61757;BME280;57225;61.460;24.060;2023-05-09T08:45:44;101006.03;;;16.98;33.75
61757;BME280;57225;61.460;24.060;2023-05-09T08:48:30;100996.66;;;17.05;33.22
61757;BME280;57225;61.460;24.060;2023-05-09T08:51:17;101011.38;;;16.89;33.58
61757;BME280;57225;61.460;24.060;2023-05-09T08:54:04;100992.81;;;16.65;33.49
61757;BME280;57225;61.460;24.060;2023-05-09T08:56:50;100995.75;;;16.84;34.88
61757;BME280;57225;61.460;24.060;2023-05-09T08:59:34;100999.53;;;17.01;34.33
61757;BME280;57225;61.460;24.060;2023-05-09T09:02:20;101002.34;;;17.01;33.67
61757;BME280;57225;61.460;24.060;2023-05-09T09:05:05;100984.13;;;17.09;33.60
61757;BME280;57225;61.460;24.060;2023-05-09T09:07:51;100991.38;;;17.57;33.61
61757;BME280;57225;61.460;24.060;2023-05-09T09:10:39;100990.19;;;17.78;32.18
61757;BME280;57225;61.460;24.060;2023-05-09T09:13:30;100999.97;;;17.73;33.60
61757;BME280;57225;61.460;24.060;2023-05-09T09:16:20;100985.00;;;17.53;32.69
61757;BME280;57225;61.460;24.060;2023-05-09T09:19:08;100997.31;;;17.86;33.32
61757;BME280;57225;61.460;24.060;2023-05-09T09:21:57;100996.13;;;17.83;32.83
61757;BME280;57225;61.460;24.060;2023-05-09T09:24:44;100991.75;;;18.61;33.03
61757;BME280;57225;61.460;24.060;2023-05-09T09:27:30;100975.19;;;18.43;31.88
61757;BME280;57225;61.460;24.060;2023-05-09T09:30:15;100989.16;;;18.70;32.21
61757;BME280;57225;61.460;24.060;2023-05-09T09:33:00;100979.81;;;19.06;32.42
61757;BME280;57225;61.460;24.060;2023-05-09T09:35:44;100982.44;;;18.80;31.39
61757;BME280;57225;61.460;24.060;2023-05-09T09:38:41;100980.16;;;18.75;31.51
61757;BME280;57225;61.460;24.060;2023-05-09T09:44:20;100957.28;;;18.86;30.16
61757;BME280;57225;61.460;24.060;2023-05-09T09:47:08;100972.66;;;18.85;31.61
61757;BME280;57225;61.460;24.060;2023-05-09T09:49:53;100963.94;;;19.12;30.86
61757;BME280;57225;61.460;24.060;2023-05-09T09:52:48;100970.28;;;19.64;30.37
61757;BME280;57225;61.460;24.060;2023-05-09T09:55:33;100977.38;;;19.56;30.58
61757;BME280;57225;61.460;24.060;2023-05-09T09:58:19;100952.09;;;19.01;29.50
61757;BME280;57225;61.460;24.060;2023-05-09T10:01:10;100968.16;;;19.36;29.87
61757;BME280;57225;61.460;24.060;2023-05-09T10:03:56;100952.44;;;19.35;29.85
61757;BME280;57225;61.460;24.060;2023-05-09T10:06:52;100976.72;;;19.16;30.47
61757;BME280;57225;61.460;24.060;2023-05-09T10:09:37;100960.22;;;18.99;29.48
61757;BME280;57225;61.460;24.060;2023-05-09T10:12:22;100966.72;;;18.63;31.11
61757;BME280;57225;61.460;24.060;2023-05-09T10:15:08;100957.38;;;18.82;31.44
61757;BME280;57225;61.460;24.060;2023-05-09T10:17:54;100965.13;;;18.62;30.65
61757;BME280;57225;61.460;24.060;2023-05-09T10:20:39;100940.25;;;19.38;30.96
61757;BME280;57225;61.460;24.060;2023-05-09T10:23:36;100953.81;;;19.76;29.94
61757;BME280;57225;61.460;24.060;2023-05-09T10:26:22;100950.69;;;19.25;30.46
61757;BME280;57225;61.460;24.060;2023-05-09T10:29:11;100941.84;;;19.55;30.94
61757;BME280;57225;61.460;24.060;2023-05-09T10:32:04;100943.44;;;19.56;29.92
61757;BME280;57225;61.460;24.060;2023-05-09T10:34:53;100944.66;;;19.72;29.17
61757;BME280;57225;61.460;24.060;2023-05-09T10:37:44;100933.50;;;19.93;28.32
61757;BME280;57225;61.460;24.060;2023-05-09T10:40:30;100931.72;;;19.99;27.73
61757;BME280;57225;61.460;24.060;2023-05-09T10:43:15;100934.00;;;20.33;29.00
61757;BME280;57225;61.460;24.060;2023-05-09T10:46:01;100924.03;;;20.41;28.43
61757;BME280;57225;61.460;24.060;2023-05-09T10:48:46;100924.88;;;20.26;29.13
61757;BME280;57225;61.460;24.060;2023-05-09T10:51:31;100934.00;;;19.76;28.74
61757;BME280;57225;61.460;24.060;2023-05-09T10:54:28;100933.03;;;19.53;30.09
61757;BME280;57225;61.460;24.060;2023-05-09T10:57:17;100901.16;;;19.94;29.34
61757;BME280;57225;61.460;24.060;2023-05-09T11:00:03;100918.78;;;20.27;28.22
61757;BME280;57225;61.460;24.060;2023-05-09T11:03:07;100926.97;;;20.51;28.46
61757;BME280;57225;61.460;24.060;2023-05-09T11:05:54;100912.47;;;19.94;27.99
61757;BME280;57225;61.460;24.060;2023-05-09T11:08:41;100919.97;;;20.01;28.11
61757;BME280;57225;61.460;24.060;2023-05-09T11:11:26;100926.31;;;20.46;29.68
61757;BME280;57225;61.460;24.060;2023-05-09T11:14:49;100915.44;;;20.58;28.15
61757;BME280;57225;61.460;24.060;2023-05-09T11:17:37;100917.41;;;20.32;28.93
61757;BME280;57225;61.460;24.060;2023-05-09T11:20:27;100920.44;;;20.54;28.49
61757;BME280;57225;61.460;24.060;2023-05-09T11:23:35;100920.75;;;20.43;28.96
61757;BME280;57225;61.460;24.060;2023-05-09T11:26:21;100896.47;;;20.29;29.12
61757;BME280;57225;61.460;24.060;2023-05-09T11:29:06;100911.34;;;20.84;28.40
61757;BME280;57225;61.460;24.060;2023-05-09T11:32:06;100908.88;;;20.86;28.30
61757;BME280;57225;61.460;24.060;2023-05-09T11:35:06;100900.38;;;20.35;28.21
61757;BME280;57225;61.460;24.060;2023-05-09T11:38:03;100902.22;;;19.72;29.08
61757;BME280;57225;61.460;24.060;2023-05-09T11:40:50;100920.59;;;19.02;29.82
61757;BME280;57225;61.460;24.060;2023-05-09T11:43:39;100905.22;;;18.71;30.22
61757;BME280;57225;61.460;24.060;2023-05-09T11:46:25;100910.31;;;18.60;31.35
61757;BME280;57225;61.460;24.060;2023-05-09T11:49:10;100891.44;;;18.37;31.04
61757;BME280;57225;61.460;24.060;2023-05-09T11:51:58;100889.28;;;19.25;30.74
61757;BME280;57225;61.460;24.060;2023-05-09T11:54:43;100868.78;;;19.95;29.52
61757;BME280;57225;61.460;24.060;2023-05-09T11:57:28;100873.28;;;20.60;28.24
61757;BME280;57225;61.460;24.060;2023-05-09T12:00:26;100877.72;;;20.35;29.09
61757;BME280;57225;61.460;24.060;2023-05-09T12:03:12;100880.09;;;19.66;29.79
61757;BME280;57225;61.460;24.060;2023-05-09T12:05:58;100881.31;;;19.82;29.41
61757;BME280;57225;61.460;24.060;2023-05-09T12:08:46;100879.75;;;20.60;29.77
61757;BME280;57225;61.460;24.060;2023-05-09T12:11:31;100877.31;;;21.44;28.03
61757;BME280;57225;61.460;24.060;2023-05-09T12:14:33;100887.19;;;21.74;26.21
61757;BME280;57225;61.460;24.060;2023-05-09T12:17:17;100865.53;;;20.98;26.32
61757;BME280;57225;61.460;24.060;2023-05-09T12:20:02;100877.00;;;20.69;28.09
61757;BME280;57225;61.460;24.060;2023-05-09T12:22:52;100884.94;;;20.74;28.74
61757;BME280;57225;61.460;24.060;2023-05-09T12:25:37;100866.03;;;20.33;28.96
61757;BME280;57225;61.460;24.060;2023-05-09T12:28:23;100853.69;;;19.86;28.89
61757;BME280;57225;61.460;24.060;2023-05-09T12:31:08;100871.03;;;19.88;29.87
61757;BME280;57225;61.460;24.060;2023-05-09T12:33:52;100856.00;;;19.91;29.93
61757;BME280;57225;61.460;24.060;2023-05-09T12:36:37;100871.50;;;20.12;29.86
61757;BME280;57225;61.460;24.060;2023-05-09T12:39:22;100858.78;;;20.45;29.00
61757;BME280;57225;61.460;24.060;2023-05-09T12:42:11;100861.44;;;20.99;28.89
61757;BME280;57225;61.460;24.060;2023-05-09T12:44:56;100857.59;;;20.93;28.02
61757;BME280;57225;61.460;24.060;2023-05-09T12:47:40;100862.25;;;20.87;28.86
61757;BME280;57225;61.460;24.060;2023-05-09T12:50:32;100853.44;;;20.72;29.26
61757;BME280;57225;61.460;24.060;2023-05-09T12:53:27;100811.59;;;20.89;28.41
61757;BME280;57225;61.460;24.060;2023-05-09T12:56:17;100855.38;;;21.57;26.78
61757;BME280;57225;61.460;24.060;2023-05-09T12:59:02;100858.94;;;21.48;27.83
61757;BME280;57225;61.460;24.060;2023-05-09T13:01:57;100855.59;;;21.28;28.22
61757;BME280;57225;61.460;24.060;2023-05-09T13:04:41;100850.34;;;21.39;28.24
61757;BME280;57225;61.460;24.060;2023-05-09T13:07:25;100840.97;;;21.30;26.86
61757;BME280;57225;61.460;24.060;2023-05-09T13:10:18;100829.28;;;20.80;27.57
61757;BME280;57225;61.460;24.060;2023-05-09T13:13:04;100849.56;;;20.92;28.77
61757;BME280;57225;61.460;24.060;2023-05-09T13:15:49;100828.75;;;20.60;27.92
61757;BME280;57225;61.460;24.060;2023-05-09T13:18:33;100832.84;;;21.06;28.07
61757;BME280;57225;61.460;24.060;2023-05-09T13:21:18;100813.75;;;20.85;27.88
61757;BME280;57225;61.460;24.060;2023-05-09T13:24:04;100818.53;;;20.63;27.50
61757;BME280;57225;61.460;24.060;2023-05-09T13:26:49;100822.06;;;20.67;28.81
61757;BME280;57225;61.460;24.060;2023-05-09T13:29:33;100825.63;;;21.05;28.49
61757;BME280;57225;61.460;24.060;2023-05-09T13:32:18;100817.06;;;20.71;28.56
61757;BME280;57225;61.460;24.060;2023-05-09T13:35:03;100821.16;;;20.44;29.12
61757;BME280;57225;61.460;24.060;2023-05-09T13:37:50;100816.66;;;20.34;28.72
61757;BME280;57225;61.460;24.060;2023-05-09T13:40:36;100803.94;;;20.26;29.00
61757;BME280;57225;61.460;24.060;2023-05-09T13:43:21;100821.22;;;20.92;29.36
61757;BME280;57225;61.460;24.060;2023-05-09T13:46:06;100797.56;;;20.73;29.11
61757;BME280;57225;61.460;24.060;2023-05-09T13:48:50;100786.53;;;20.87;29.13
61757;BME280;57225;61.460;24.060;2023-05-09T13:51:35;100794.34;;;20.96;29.34
61757;BME280;57225;61.460;24.060;2023-05-09T13:54:21;100809.91;;;20.79;28.01
61757;BME280;57225;61.460;24.060;2023-05-09T13:57:08;100812.09;;;20.37;29.10
61757;BME280;57225;61.460;24.060;2023-05-09T13:59:53;100808.91;;;19.97;28.33
61757;BME280;57225;61.460;24.060;2023-05-09T14:02:37;100807.94;;;19.75;30.00
61757;BME280;57225;61.460;24.060;2023-05-09T14:05:22;100763.69;;;19.68;29.73
61757;BME280;57225;61.460;24.060;2023-05-09T14:08:07;100800.56;;;19.52;30.20
61757;BME280;57225;61.460;24.060;2023-05-09T14:10:52;100800.13;;;19.37;30.09
61757;BME280;57225;61.460;24.060;2023-05-09T14:13:36;100788.56;;;19.32;30.17
61757;BME280;57225;61.460;24.060;2023-05-09T14:16:21;100777.81;;;19.55;30.76
61757;BME280;57225;61.460;24.060;2023-05-09T14:19:05;100781.31;;;19.47;30.09
61757;BME280;57225;61.460;24.060;2023-05-09T14:21:50;100780.69;;;19.39;30.04
61757;BME280;57225;61.460;24.060;2023-05-09T14:24:34;100778.09;;;19.16;30.51
61757;BME280;57225;61.460;24.060;2023-05-09T14:27:23;100780.22;;;19.28;30.48
61757;BME280;57225;61.460;24.060;2023-05-09T14:30:09;100773.16;;;19.20;29.41